Time;durP1;ratioP1;P1;durP2;ratioP2;P2;SDS_P1;SDS_P2;PMS_P1;PMS_P2;Temp;Humidity;BMP_temperature;BMP_pressure;BME280_temperature;BME280_humidity;BME280_pressure;Samples;Min_cycle;Max_cycle;Signal;HPM_P1;HPM_P2
2022/02/14 00:01:11;;;;;;;;;5.67;5.67;;;;;-147.17;93.10;50712.16;4984174;28;51374;-60
2022/02/14 00:03:36;;;;;;;;;5.75;5.75;;;;;-147.17;93.59;50710.19;4969745;28;53529;-62
2022/02/14 00:06:01;;;;;;;;;7.00;7.00;;;;;-147.17;93.61;50710.19;4988399;28;51174;-62
2022/02/14 00:08:27;;;;;;;;;6.00;6.00;;;;;-147.17;93.67;50714.13;4987443;28;51582;-61
2022/02/14 00:10:52;;;;;;;;;6.75;5.25;;;;;-147.17;93.79;50712.16;4993310;28;51337;-62
2022/02/14 00:13:18;;;;;;;;;6.00;5.33;;;;;-147.17;94.01;50694.44;4993343;28;50951;-62
2022/02/14 00:15:44;;;;;;;;;6.00;5.67;;;;;-147.17;94.62;50698.38;4993275;28;51031;-63
2022/02/14 00:18:09;;;;;;;;;5.00;5.00;;;;;-147.17;95.18;50714.13;4993180;28;50949;-62
2022/02/14 00:20:35;;;;;;;;;6.33;5.67;;;;;-147.17;95.59;50698.38;4993629;28;51107;-60
2022/02/14 00:23:00;;;;;;;;;6.00;6.00;;;;;-147.17;95.81;50690.50;4975903;28;53928;-62
2022/02/14 00:25:26;;;;;;;;;5.67;5.00;;;;;-147.17;95.62;50684.59;4993677;28;51002;-62
2022/02/14 00:27:51;;;;;;;;;6.00;4.75;;;;;-147.17;95.39;50645.22;4974211;28;51266;-61
2022/02/14 00:30:17;;;;;;;;;4.00;4.00;;;;;-147.17;95.55;50651.13;4984556;28;51107;-61
2022/02/14 00:32:42;;;;;;;;;5.75;5.75;;;;;-147.17;96.14;50678.69;4992199;28;51069;-61
2022/02/14 00:35:10;;;;;;;;;5.75;5.00;;;;;-147.17;96.24;50659.00;4992923;28;51037;-62
2022/02/14 00:37:36;;;;;;;;;7.75;6.00;;;;;-147.17;96.46;50651.13;4993164;28;51201;-62
2022/02/14 00:40:01;;;;;;;;;5.00;5.00;;;;;-147.17;96.45;50682.63;4993059;28;50933;-62
2022/02/14 00:42:27;;;;;;;;;7.00;6.00;;;;;-147.17;96.67;50682.63;4992732;28;51894;-61
2022/02/14 00:44:52;;;;;;;;;7.75;6.00;;;;;-147.17;96.41;50659.00;4992967;28;50910;-61
2022/02/14 00:47:18;;;;;;;;;5.00;5.00;;;;;-147.17;96.94;50682.63;4992577;28;50947;-62
2022/02/14 00:49:43;;;;;;;;;6.00;6.00;;;;;-147.17;96.83;50688.53;4974988;28;50973;-62
2022/02/14 00:52:08;;;;;;;;;4.25;4.25;;;;;-147.17;96.70;50670.81;4992758;28;51807;-62
2022/02/14 00:54:34;;;;;;;;;3.33;3.33;;;;;-147.17;96.90;50678.69;4992873;28;51093;-62
2022/02/14 00:57:00;;;;;;;;;6.00;5.33;;;;;-147.17;96.69;50684.59;4974968;28;50902;-62
2022/02/14 00:59:26;;;;;;;;;7.33;6.00;;;;;-147.17;97.17;50680.66;4992101;28;51444;-62
2022/02/14 01:01:51;;;;;;;;;7.00;6.00;;;;;-147.17;96.94;50643.25;4992274;28;51111;-62
2022/02/14 01:04:17;;;;;;;;;6.00;6.00;;;;;-147.17;96.93;50659.00;4992934;28;51134;-62
2022/02/14 01:06:43;;;;;;;;;6.00;6.00;;;;;-147.17;96.67;50690.50;4991946;28;51237;-62
2022/02/14 01:09:09;;;;;;;;;6.00;5.33;;;;;-147.17;96.63;50674.75;4973304;28;51010;-62
2022/02/14 01:11:34;;;;;;;;;5.33;5.00;;;;;-147.17;97.19;50684.59;4992628;28;51988;-62
2022/02/14 01:14:00;;;;;;;;;3.00;3.00;;;;;-147.17;96.95;50653.09;4992593;28;51444;-62
2022/02/14 01:16:25;;;;;;;;;4.33;4.33;;;;;-147.17;96.72;50670.81;4995698;28;51125;-62
2022/02/14 01:18:50;;;;;;;;;4.00;4.00;;;;;-147.17;96.53;50660.97;4978626;28;51263;-61
2022/02/14 01:21:16;;;;;;;;;5.00;4.67;;;;;-147.17;96.92;50670.81;4995948;28;51227;-62
2022/02/14 01:23:41;;;;;;;;;6.00;5.00;;;;;-147.17;96.83;50710.19;4996130;28;50882;-62
2022/02/14 01:26:07;;;;;;;;;5.33;4.67;;;;;-147.17;97.05;50698.38;4988912;28;51066;-62
2022/02/14 01:28:32;;;;;;;;;6.00;5.00;;;;;-147.17;96.82;50672.78;4990983;28;51051;-60
2022/02/14 01:30:57;;;;;;;;;4.00;3.00;;;;;-147.17;96.76;50660.97;4995605;28;51593;-62
2022/02/14 01:33:23;;;;;;;;;6.00;5.00;;;;;-147.17;96.42;50686.56;4978811;28;50922;-62
2022/02/14 01:35:50;;;;;;;;;6.00;5.00;;;;;-147.17;96.89;50659.00;4996053;28;50922;-62
2022/02/14 01:38:16;;;;;;;;;5.00;4.67;;;;;-147.17;96.83;50696.41;4996345;28;51321;-62
2022/02/14 01:40:42;;;;;;;;;5.00;5.00;;;;;-147.17;96.74;50664.91;4995567;28;52352;-62
2022/02/14 01:43:07;;;;;;;;;6.00;6.00;;;;;-147.17;96.97;50708.22;4995992;28;51134;-61
2022/02/14 01:45:33;;;;;;;;;5.33;5.00;;;;;-147.17;97.02;50684.59;4995908;28;51035;-60
2022/02/14 01:47:58;;;;;;;;;4.67;4.00;;;;;-147.17;96.77;50702.31;4995690;28;51345;-60
2022/02/14 01:50:24;;;;;;;;;4.67;4.67;;;;;-147.17;97.06;50668.84;4995611;28;51620;-61
2022/02/14 01:52:53;;;;;;;;;4.00;4.00;;;;;-147.17;97.18;50668.84;4995821;28;51043;-62
2022/02/14 01:55:20;;;;;;;;;5.00;4.00;;;;;-147.17;97.38;50678.69;4994264;28;51281;-62
2022/02/14 01:57:45;;;;;;;;;5.33;4.67;;;;;-147.17;97.84;50674.75;4977967;28;50926;-62
2022/02/14 02:00:14;;;;;;;;;5.00;4.00;;;;;-147.17;97.45;50666.88;4994979;28;52352;-62
2022/02/14 02:02:41;;;;;;;;;3.33;3.33;;;;;-147.17;97.77;50643.25;4994762;28;51041;-62
2022/02/14 02:05:07;;;;;;;;;5.00;5.00;;;;;-147.17;98.02;50666.88;4977877;28;51113;-62
2022/02/14 02:07:32;;;;;;;;;6.00;4.67;;;;;-147.17;98.29;50664.91;4995665;28;51213;-62
2022/02/14 02:09:58;;;;;;;;;6.33;5.00;;;;;-147.17;98.47;50643.25;4977627;28;51172;-62
2022/02/14 02:12:23;;;;;;;;;5.33;5.00;;;;;-147.17;98.72;50676.72;4995450;28;51026;-62
2022/02/14 02:15:05;;;;;;;;;4.67;4.00;;;;;-147.17;99.02;50619.63;4995346;28;51243;-62
2022/02/14 02:17:38;;;;;;;;;3.67;3.00;;;;;-147.17;98.95;50674.75;4977586;28;51049;-61
2022/02/14 02:20:06;;;;;;;;;5.33;5.00;;;;;-147.17;100.00;50617.66;4994827;28;52289;-61
2022/02/14 02:22:31;;;;;;;;;4.33;4.00;;;;;-147.17;100.00;50653.09;4995046;28;50978;-62
2022/02/14 02:24:57;;;;;;;;;5.00;4.33;;;;;-147.17;100.00;50619.63;4989783;28;51009;-62
2022/02/14 02:27:28;;;;;;;;;5.67;4.00;;;;;-147.17;100.00;50601.91;4994330;28;51341;-61
2022/02/14 02:29:55;;;;;;;;;2.33;2.33;;;;;-147.17;100.00;50627.50;4994896;28;51874;-61
2022/02/14 02:32:21;;;;;;;;;3.67;3.00;;;;;-147.17;100.00;50607.81;4994857;28;51023;-61
2022/02/14 02:34:47;;;;;;;;;5.00;4.00;;;;;-147.17;100.00;50619.63;4994948;28;50948;-61
2022/02/14 02:37:15;;;;;;;;;4.33;3.33;;;;;-147.17;100.00;50588.13;4995410;28;50941;-61
2022/02/14 02:39:41;;;;;;;;;4.00;4.00;;;;;-147.17;100.00;50625.53;4976796;28;53526;-62
2022/02/14 02:42:08;;;;;;;;;4.67;4.67;;;;;-147.17;100.00;50603.88;4995147;28;51045;-62
2022/02/14 02:44:35;;;;;;;;;6.00;5.00;;;;;-147.17;100.00;50584.19;4994820;28;51019;-62
2022/02/14 02:47:13;;;;;;;;;1.00;1.00;;;;;-147.17;100.00;50615.69;4994809;28;51115;-61
2022/02/14 02:49:38;;;;;;;;;5.00;4.00;;;;;-147.17;100.00;50562.53;4993552;28;51991;-61
2022/02/14 02:52:06;;;;;;;;;4.00;3.00;;;;;-147.17;100.00;50580.25;4994834;28;50964;-61
2022/02/14 02:54:32;;;;;;;;;6.00;5.00;;;;;-147.17;100.00;50562.53;4994081;28;51061;-61
2022/02/14 02:56:57;;;;;;;;;5.67;5.00;;;;;-147.17;100.00;50574.34;4976488;28;51233;-61
2022/02/14 02:59:25;;;;;;;;;4.00;4.00;;;;;-147.17;100.00;50597.97;4994136;28;52408;-61
2022/02/14 03:01:52;;;;;;;;;5.33;4.67;;;;;-147.17;100.00;50615.69;4994362;28;51103;-61
2022/02/14 03:04:17;;;;;;;;;5.67;4.33;;;;;-147.17;100.00;50570.41;4994518;28;50991;-61
2022/02/14 03:06:43;;;;;;;;;4.50;4.50;;;;;-147.17;100.00;50607.81;4994635;28;50827;-62
2022/02/14 03:09:10;;;;;;;;;3.67;3.00;;;;;-147.17;100.00;50601.91;4993639;28;52936;-60
2022/02/14 03:11:37;;;;;;;;;3.00;3.00;;;;;-147.17;100.00;50588.13;4993579;28;51019;-62
2022/02/14 03:14:04;;;;;;;;;6.00;5.00;;;;;-147.17;100.00;50596.00;4994524;28;51178;-60
2022/02/14 03:16:29;;;;;;;;;4.33;3.33;;;;;-147.17;100.00;50560.56;4994074;28;51149;-61
2022/02/14 03:18:55;;;;;;;;;4.00;4.00;;;;;-147.17;100.00;50544.81;4994255;28;53183;-61
2022/02/14 03:21:20;;;;;;;;;3.00;3.00;;;;;-147.17;100.00;50531.03;4973649;28;51278;-62
2022/02/14 03:23:47;;;;;;;;;4.00;3.67;;;;;-147.17;100.00;50546.78;4988492;28;51189;-61
2022/02/14 03:26:14;;;;;;;;;5.00;4.00;;;;;-147.17;100.00;50529.06;4994171;28;50902;-61
2022/02/14 03:28:39;;;;;;;;;3.67;3.67;;;;;-147.17;100.00;50509.38;4976505;28;52084;-61
2022/02/14 03:31:04;;;;;;;;;5.00;5.00;;;;;-147.17;100.00;50513.31;4993935;28;51350;-61
2022/02/14 03:33:30;;;;;;;;;4.67;4.00;;;;;-147.17;100.00;50517.25;4994323;28;51773;-61
2022/02/14 03:35:55;;;;;;;;;4.00;4.00;;;;;-147.17;100.00;50534.97;4976112;28;51212;-61
2022/02/14 03:38:21;;;;;;;;;4.00;4.00;;;;;-147.17;100.00;50525.13;4974151;28;51229;-61
2022/02/14 03:40:46;;;;;;;;;3.00;3.00;;;;;-147.17;100.00;50519.22;4993933;28;51361;-61
2022/02/14 03:43:12;;;;;;;;;4.67;4.67;;;;;-147.17;100.00;50495.59;4994306;28;51056;-61
2022/02/14 03:45:42;;;;;;;;;5.33;5.00;;;;;-147.17;100.00;50503.47;4994072;28;51065;-61
2022/02/14 03:48:08;;;;;;;;;5.00;5.00;;;;;-147.17;100.00;50471.97;4993529;28;51866;-60
2022/02/14 03:50:33;;;;;;;;;3.33;3.33;;;;;-147.17;100.00;50481.81;4993870;28;51035;-61
2022/02/14 03:53:00;;;;;;;;;3.00;3.00;;;;;-147.17;100.00;50491.66;4993861;28;50880;-61
2022/02/14 03:55:26;;;;;;;;;4.00;4.00;;;;;-147.17;100.00;50489.69;4993961;28;51275;-61
2022/02/14 03:57:51;;;;;;;;;1.67;1.00;;;;;-147.17;100.00;50473.94;4993288;28;51721;-61
2022/02/14 04:00:20;;;;;;;;;2.00;2.00;;;;;-147.17;100.00;50475.91;4984826;28;51495;-61
2022/02/14 04:02:46;;;;;;;;;4.00;3.33;;;;;-147.17;100.00;50432.59;4993397;28;51108;-61
2022/02/14 04:05:13;;;;;;;;;5.00;4.00;;;;;-147.17;100.00;50507.41;4993742;28;51152;-61
2022/02/14 04:07:39;;;;;;;;;1.00;1.00;;;;;-147.17;100.00;50462.13;4993592;28;52723;-61
2022/02/14 04:10:06;;;;;;;;;0.33;0.00;;;;;-147.17;100.00;50440.47;4980760;28;50955;-61
2022/02/14 04:12:31;;;;;;;;;0.00;0.00;;;;;-147.17;100.00;50462.13;4975828;28;51048;-61
2022/02/14 04:14:57;;;;;;;;;0.00;0.00;;;;;-147.17;100.00;50519.22;4993669;28;51091;-61
2022/02/14 04:17:23;;;;;;;;;0.00;0.00;;;;;-147.17;100.00;50497.56;4992803;28;51867;-61
2022/02/14 04:19:48;;;;;;;;;0.00;0.00;;;;;-147.17;100.00;50533.00;4993163;28;51035;-61
2022/02/14 04:22:14;;;;;;;;;0.00;0.00;;;;;-147.17;100.00;50568.44;4993787;28;50987;-62
2022/02/14 04:24:39;;;;;;;;;0.00;0.00;;;;;-147.17;100.00;50534.97;4992476;28;50983;-61
2022/02/14 04:27:05;;;;;;;;;0.00;0.00;;;;;-147.17;100.00;50554.66;4980344;28;51670;-61
2022/02/14 04:29:30;;;;;;;;;0.67;0.67;;;;;-147.17;100.00;50560.56;4993438;28;50923;-61
2022/02/14 04:31:55;;;;;;;;;0.00;0.00;;;;;-147.17;100.00;50517.25;4993016;28;51477;-61
2022/02/14 04:34:21;;;;;;;;;0.00;0.00;;;;;-147.17;100.00;50556.63;4993380;28;51150;-61
2022/02/14 04:36:47;;;;;;;;;0.00;0.00;;;;;-147.17;100.00;50534.97;4992954;28;52141;-63
2022/02/14 04:39:13;;;;;;;;;0.67;0.00;;;;;-147.17;100.00;50554.66;4993260;28;50996;-61
2022/02/14 04:41:39;;;;;;;;;0.00;0.00;;;;;-147.17;100.00;50544.81;4993513;28;50882;-62
2022/02/14 04:44:04;;;;;;;;;0.00;0.00;;;;;-147.17;100.00;50540.88;4993392;28;51105;-62
2022/02/14 04:46:30;;;;;;;;;0.00;0.00;;;;;-147.17;100.00;50525.13;4973909;28;52303;-62
2022/02/14 04:48:55;;;;;;;;;0.00;0.00;;;;;-147.17;100.00;50536.94;4993308;28;50921;-62
2022/02/14 04:51:21;;;;;;;;;0.00;0.00;;;;;-147.17;100.00;50533.00;4992688;28;51246;-62
2022/02/14 04:53:47;;;;;;;;;0.00;0.00;;;;;-147.17;100.00;50497.56;4993377;28;51412;-62
2022/02/14 04:56:13;;;;;;;;;0.00;0.00;;;;;-147.17;100.00;50533.00;4992084;28;50928;-62
2022/02/14 04:58:38;;;;;;;;;0.00;0.00;;;;;-147.17;100.00;50536.94;4991881;28;51107;-62
2022/02/14 05:01:03;;;;;;;;;0.00;0.00;;;;;-147.17;100.00;50513.31;4990263;28;52776;-61
2022/02/14 05:03:29;;;;;;;;;0.00;0.00;;;;;-147.17;100.00;50513.31;4992188;28;51074;-62
2022/02/14 05:05:54;;;;;;;;;0.00;0.00;;;;;-147.17;100.00;50548.75;4992812;28;52997;-62
2022/02/14 05:08:19;;;;;;;;;0.00;0.00;;;;;-147.17;100.00;50533.00;4992362;28;51067;-64
2022/02/14 05:10:45;;;;;;;;;0.00;0.00;;;;;-147.17;100.00;50519.22;4992377;28;51053;-62
2022/02/14 05:13:10;;;;;;;;;3.00;0.00;;;;;-147.17;100.00;50533.00;4992977;28;51201;-61
2022/02/14 05:15:35;;;;;;;;;0.00;0.00;;;;;-147.17;100.00;50548.75;4992019;28;51193;-61
2022/02/14 05:18:00;;;;;;;;;2.00;2.00;;;;;-147.17;100.00;50536.94;4991470;28;51017;-62
2022/02/14 05:20:26;;;;;;;;;0.00;0.00;;;;;-147.17;100.00;50534.97;4993026;28;50997;-62
2022/02/14 05:22:52;;;;;;;;;0.00;0.00;;;;;-147.17;100.00;50525.13;4991022;28;51187;-62
2022/02/14 05:25:17;;;;;;;;;0.00;0.00;;;;;-147.17;100.00;50525.13;4979206;28;52638;-61
2022/02/14 05:27:42;;;;;;;;;0.00;0.00;;;;;-147.17;100.00;50536.94;4992560;28;50896;-62
2022/02/14 05:30:08;;;;;;;;;0.00;0.00;;;;;-147.17;100.00;50540.88;4992558;28;51095;-62
2022/02/14 05:32:34;;;;;;;;;0.00;0.00;;;;;-147.17;100.00;50529.06;4991049;28;51286;-62
2022/02/14 05:34:59;;;;;;;;;0.00;0.00;;;;;-147.17;100.00;50499.53;4991443;28;51972;-61
2022/02/14 05:37:24;;;;;;;;;0.00;0.00;;;;;-147.17;100.00;50505.44;4991220;28;51214;-62
2022/02/14 05:39:50;;;;;;;;;0.00;0.00;;;;;-147.17;100.00;50538.91;4991698;28;51780;-63
2022/02/14 05:42:16;;;;;;;;;0.00;0.00;;;;;-147.17;100.00;50517.25;4990820;28;51004;-67
2022/02/14 05:44:43;;;;;;;;;0.00;0.00;;;;;-147.17;100.00;50529.06;4991609;28;52122;-62
2022/02/14 05:47:09;;;;;;;;;0.33;0.00;;;;;-147.17;100.00;50507.41;4991944;28;51129;-62
2022/02/14 05:49:34;;;;;;;;;0.00;0.00;;;;;-147.17;100.00;50501.50;4992014;28;51152;-61
2022/02/14 05:52:00;;;;;;;;;0.67;0.67;;;;;-147.17;100.00;50529.06;4992132;28;51154;-61
2022/02/14 05:54:25;;;;;;;;;0.00;0.00;;;;;-147.17;100.00;50525.13;4991184;28;51470;-62
2022/02/14 05:56:50;;;;;;;;;5.00;5.00;;;;;-147.17;100.00;50493.63;4991543;28;51091;-61
2022/02/14 05:59:16;;;;;;;;;0.00;0.00;;;;;-147.17;100.00;50505.44;4997216;28;51118;-62
2022/02/14 06:01:41;;;;;;;;;0.00;0.00;;;;;-147.17;100.00;50521.19;4990425;28;52404;-62
2022/02/14 06:04:07;;;;;;;;;0.00;0.00;;;;;-147.17;100.00;50525.13;4994198;28;52970;-62
2022/02/14 06:06:32;;;;;;;;;0.00;0.00;;;;;-147.17;100.00;50487.72;4995488;28;50893;-62
2022/02/14 06:08:58;;;;;;;;;0.00;0.00;;;;;-147.17;100.00;50519.22;4991677;28;51079;-61
2022/02/14 06:11:23;;;;;;;;;0.00;0.00;;;;;-147.17;100.00;50529.06;4995526;28;51185;-61
2022/02/14 06:13:48;;;;;;;;;0.00;0.00;;;;;-147.17;100.00;50513.31;4992444;28;51189;-61
2022/02/14 06:16:14;;;;;;;;;0.00;0.00;;;;;-147.17;100.00;50523.16;4991017;28;51189;-61
2022/02/14 06:18:40;;;;;;;;;0.00;0.00;;;;;-147.17;100.00;50519.22;4994123;28;51217;-62
2022/02/14 06:21:05;;;;;;;;;0.67;0.00;;;;;-147.17;100.00;50491.66;4994374;28;51044;-61
2022/02/14 06:23:31;;;;;;;;;1.00;1.00;;;;;-147.17;100.00;50470.00;4994023;28;52826;-60
2022/02/14 06:25:56;;;;;;;;;0.67;0.00;;;;;-147.17;100.00;50499.53;4994567;28;51040;-62
2022/02/14 06:28:22;;;;;;;;;0.00;0.00;;;;;-147.17;100.00;50487.72;4995614;28;51063;-61
2022/02/14 06:30:47;;;;;;;;;0.00;0.00;;;;;-147.17;100.00;50487.72;4994395;28;51348;-60
2022/02/14 06:33:14;;;;;;;;;0.33;0.33;;;;;-147.17;100.00;50493.63;4993680;28;51714;-61
2022/02/14 06:35:40;;;;;;;;;0.00;0.00;;;;;-147.17;100.00;50489.69;4993778;28;51178;-61
2022/02/14 06:38:05;;;;;;;;;1.00;1.00;;;;;-147.17;100.00;50497.56;4993647;28;51315;-62
2022/02/14 06:40:31;;;;;;;;;2.00;0.00;;;;;-147.17;100.00;50505.44;4976652;28;51070;-61
2022/02/14 06:42:56;;;;;;;;;0.00;0.00;;;;;-147.17;100.00;50483.78;4993841;28;51392;-60
2022/02/14 06:45:22;;;;;;;;;0.33;0.33;;;;;-147.17;100.00;50489.69;4994236;28;51094;-60
2022/02/14 06:47:47;;;;;;;;;1.33;1.00;;;;;-147.17;100.00;50477.88;4993791;28;51269;-59
2022/02/14 06:50:13;;;;;;;;;1.00;0.33;;;;;-147.17;100.00;50505.44;4976818;28;51037;-61
2022/02/14 06:52:39;;;;;;;;;1.00;1.00;;;;;-147.17;100.00;50446.38;4993900;28;51091;-61
2022/02/14 06:55:07;;;;;;;;;0.00;0.00;;;;;-147.17;100.00;50501.50;4994219;28;51106;-62
2022/02/14 06:57:33;;;;;;;;;0.67;0.00;;;;;-147.17;100.00;50456.22;4994188;28;51011;-61
2022/02/14 06:59:59;;;;;;;;;0.00;0.00;;;;;-147.17;100.00;50473.94;4994495;28;51127;-61
2022/02/14 07:02:25;;;;;;;;;1.00;0.00;;;;;-147.17;100.00;50493.63;4993853;28;52073;-62
2022/02/14 07:04:50;;;;;;;;;1.00;1.00;;;;;-147.17;100.00;50505.44;4994077;28;51083;-61
2022/02/14 07:07:19;;;;;;;;;0.75;0.50;;;;;-147.17;100.00;50475.91;4994308;28;51032;-61
2022/02/14 07:09:46;;;;;;;;;2.67;2.00;;;;;-147.17;100.00;50473.94;4992275;28;51135;-61
2022/02/14 07:12:11;;;;;;;;;2.00;2.00;;;;;-147.17;100.00;50485.75;4994872;28;51025;-61
2022/02/14 07:14:37;;;;;;;;;2.50;2.25;;;;;-147.17;100.00;50475.91;4977443;28;51156;-61
2022/02/14 07:17:02;;;;;;;;;2.00;1.00;;;;;-147.17;100.00;50509.38;4993835;28;51032;-61
2022/02/14 07:19:28;;;;;;;;;1.67;1.67;;;;;-147.17;100.00;50470.00;4993704;28;51232;-61
2022/02/14 07:21:53;;;;;;;;;1.00;1.00;;;;;-147.17;100.00;50466.06;4989379;28;52161;-61
2022/02/14 07:24:18;;;;;;;;;4.50;4.50;;;;;-147.17;100.00;50471.97;4975037;28;51162;-61
2022/02/14 07:26:44;;;;;;;;;3.00;2.33;;;;;-147.17;100.00;50521.19;4959608;28;50965;-61
2022/02/14 07:29:09;;;;;;;;;3.00;1.00;;;;;-147.17;100.00;50491.66;4994630;28;52387;-62
2022/02/14 07:31:35;;;;;;;;;1.00;1.00;;;;;-147.17;100.00;50505.44;4991658;28;51838;-61
2022/02/14 07:34:01;;;;;;;;;1.00;1.00;;;;;-147.17;100.00;50505.44;4990027;28;51318;-61
2022/02/14 07:36:27;;;;;;;;;2.00;1.75;;;;;-147.17;100.00;50481.81;4974867;28;51059;-61
2022/02/14 07:38:55;;;;;;;;;1.00;1.00;;;;;-147.17;100.00;50521.19;4992943;28;51096;-61
2022/02/14 07:41:21;;;;;;;;;2.00;2.00;;;;;-147.17;100.00;50519.22;4992804;28;51063;-61
2022/02/14 07:43:46;;;;;;;;;3.00;2.25;;;;;-147.17;100.00;50505.44;4992602;28;51221;-60
2022/02/14 07:46:12;;;;;;;;;2.00;2.00;;;;;-147.17;100.00;50513.31;4992880;28;51069;-61
2022/02/14 07:48:39;;;;;;;;;4.75;4.00;;;;;-147.17;100.00;50525.13;4993356;28;51151;-61
2022/02/14 07:51:04;;;;;;;;;3.00;2.25;;;;;-147.17;100.00;50521.19;4993221;28;52740;-61
2022/02/14 07:53:30;;;;;;;;;2.67;2.33;;;;;-147.17;100.00;50507.41;4993121;28;51028;-62
2022/02/14 07:55:55;;;;;;;;;0.00;0.00;;;;;-147.17;100.00;50513.31;4988773;28;51343;-62
2022/02/14 07:58:21;;;;;;;;;3.67;3.00;;;;;-147.17;100.00;50489.69;4993157;28;51229;-61
2022/02/14 08:00:46;;;;;;;;;3.00;3.00;;;;;-147.17;100.00;50509.38;4987751;28;51158;-61
2022/02/14 08:03:12;;;;;;;;;4.00;3.00;;;;;-147.17;100.00;50511.34;4993015;28;50881;-61
2022/02/14 08:05:37;;;;;;;;;2.00;2.00;;;;;-147.17;100.00;50519.22;4993302;28;51398;-61
2022/02/14 08:08:02;;;;;;;;;5.00;3.75;;;;;-147.17;100.00;50540.88;4991592;28;51371;-61
2022/02/14 08:10:28;;;;;;;;;1.00;1.00;;;;;-147.17;100.00;50534.97;4967849;28;53739;-61
2022/02/14 08:12:54;;;;;;;;;1.67;1.00;;;;;-147.17;100.00;50560.56;4992863;28;51115;-61
2022/02/14 08:15:19;;;;;;;;;1.33;1.00;;;;;-147.17;100.00;50534.97;4993301;28;51072;-61
2022/02/14 08:17:45;;;;;;;;;2.67;2.00;;;;;-147.17;100.00;50536.94;4992692;28;50872;-61
2022/02/14 08:20:10;;;;;;;;;1.33;1.00;;;;;-147.17;100.00;50548.75;4991405;28;51803;-62
2022/02/14 08:22:36;;;;;;;;;1.33;1.33;;;;;-147.17;100.00;50576.31;4992407;28;51006;-62
2022/02/14 08:25:01;;;;;;;;;2.00;2.00;;;;;-147.17;100.00;50576.31;4993043;28;51507;-62
2022/02/14 08:27:27;;;;;;;;;2.33;2.00;;;;;-147.17;100.00;50523.16;4993561;28;51145;-61
2022/02/14 08:29:53;;;;;;;;;2.00;1.00;;;;;-147.17;100.00;50515.28;4992290;28;52949;-62
2022/02/14 08:32:18;;;;;;;;;2.00;1.00;;;;;-147.17;100.00;50556.63;4992226;28;51129;-62
2022/02/14 08:34:44;;;;;;;;;2.00;2.00;;;;;-147.17;100.00;50657.03;4992941;28;50988;-61
2022/02/14 08:37:11;;;;;;;;;2.00;1.67;;;;;-147.17;99.70;50698.38;4992996;28;51226;-61
2022/02/14 08:39:37;;;;;;;;;3.67;2.33;;;;;-147.17;97.34;50785.00;4992529;28;51876;-62
2022/02/14 08:42:03;;;;;;;;;2.67;2.67;;;;;-147.17;96.49;50798.78;4992699;28;51012;-61
2022/02/14 08:44:28;;;;;;;;;17.00;14.50;;;;;-147.17;94.08;50932.66;4992512;28;51177;-61
2022/02/14 08:46:54;;;;;;;;;5.00;3.00;;;;;-147.17;87.65;51048.81;4992006;28;51300;-62
2022/02/14 08:49:24;;;;;;;;;5.67;5.00;;;;;-147.17;85.03;51103.94;4992686;28;52020;-61
2022/02/14 08:51:52;;;;;;;;;2.00;2.00;;;;;-147.17;84.56;51101.97;4992189;28;50937;-61
2022/02/14 08:54:17;;;;;;;;;1.67;1.33;;;;;-147.17;83.64;51088.19;4992402;28;50892;-61
2022/02/14 08:56:43;;;;;;;;;1.67;1.67;;;;;-147.17;81.82;51115.75;4975186;28;51116;-61
2022/02/14 08:59:08;;;;;;;;;2.67;2.33;;;;;-147.17;81.35;51141.34;4992067;28;50943;-62
2022/02/14 09:01:34;;;;;;;;;4.00;4.00;;;;;-147.17;80.45;51186.66;4991668;28;51115;-61
2022/02/14 09:04:00;;;;;;;;;4.33;3.67;;;;;-147.17;79.48;51222.09;4974861;28;50981;-61
2022/02/14 09:06:27;;;;;;;;;5.33;3.67;;;;;-147.17;78.94;51204.38;4974643;28;51034;-61
2022/02/14 09:08:53;;;;;;;;;4.67;4.00;;;;;-147.17;77.69;51190.59;4990474;28;51335;-61
2022/02/14 09:11:19;;;;;;;;;3.00;2.00;;;;;-147.17;77.44;51155.13;4991583;28;51114;-61
2022/02/14 09:13:45;;;;;;;;;2.67;2.00;;;;;-147.17;76.56;51172.88;4992393;28;51013;-62
2022/02/14 09:16:11;;;;;;;;;3.33;2.33;;;;;-147.17;77.03;51086.22;4991977;28;51235;-61
2022/02/14 09:18:38;;;;;;;;;2.67;2.67;;;;;-147.17;77.83;51035.03;4991089;28;51937;-61
2022/02/14 09:21:05;;;;;;;;;4.33;3.00;;;;;-147.17;79.22;50989.75;4991839;28;51010;-61
2022/02/14 09:23:31;;;;;;;;;3.67;2.33;;;;;-147.17;79.96;50975.97;4974379;28;50959;-61
2022/02/14 09:25:58;;;;;;;;;4.00;3.00;;;;;-147.17;80.83;50950.38;4991412;28;51230;-61
2022/02/14 09:28:24;;;;;;;;;3.67;3.00;;;;;-147.17;81.48;50964.16;4992505;28;51940;-62
2022/02/14 09:30:50;;;;;;;;;4.00;3.00;;;;;-147.17;81.76;50932.66;4991385;28;51197;-61
2022/02/14 09:33:15;;;;;;;;;3.67;3.00;;;;;-147.17;82.16;50918.88;4992819;28;51091;-61
2022/02/14 09:35:41;;;;;;;;;2.33;1.00;;;;;-147.17;82.37;50897.22;4995102;28;51369;-61
2022/02/14 09:38:07;;;;;;;;;2.67;2.00;;;;;-147.17;83.19;50875.56;4995309;28;52166;-61
2022/02/14 09:40:34;;;;;;;;;3.00;1.33;;;;;-147.17;83.45;50855.88;4994744;28;51060;-61
2022/02/14 09:43:01;;;;;;;;;2.00;2.00;;;;;-147.17;83.81;50840.13;4973714;28;51030;-61
2022/02/14 09:45:28;;;;;;;;;2.00;2.00;;;;;-147.17;84.18;50859.81;4993142;28;51268;-62
2022/02/14 09:48:02;;;;;;;;;2.00;2.00;;;;;-147.17;84.96;50832.25;4994359;28;51936;-61
2022/02/14 09:50:30;;;;;;;;;4.00;3.33;;;;;-147.17;85.48;50836.19;4994828;28;51256;-61
2022/02/14 09:52:56;;;;;;;;;2.33;2.33;;;;;-147.17;85.91;50814.53;4995448;28;50988;-61
2022/02/14 09:55:22;;;;;;;;;3.00;2.00;;;;;-147.17;86.74;50775.16;4994918;28;50931;-61
2022/02/14 09:57:48;;;;;;;;;60.75;49.25;;;;;-147.17;87.32;50743.66;4994699;28;51846;-62
2022/02/14 10:00:14;;;;;;;;;1.67;1.00;;;;;-147.17;88.36;50796.81;4976602;28;51209;-61
2022/02/14 10:02:39;;;;;;;;;2.00;2.00;;;;;-147.17;89.11;50761.38;4986522;28;51176;-62
2022/02/14 10:05:18;;;;;;;;;4.00;2.00;;;;;-147.17;89.04;50722.00;4994761;28;51075;-62
2022/02/14 10:07:49;;;;;;;;;1.00;1.00;;;;;-147.17;88.93;50779.09;4995007;28;51993;-62
2022/02/14 10:10:25;;;;;;;;;4.67;3.00;;;;;-147.17;91.39;50710.19;4977314;28;51022;-61
2022/02/14 10:12:58;;;;;;;;;1.33;1.33;;;;;-147.17;89.09;50794.84;4994908;28;51046;-61
2022/02/14 10:15:25;;;;;;;;;4.00;3.00;;;;;-147.17;87.92;50812.56;4963590;28;50962;-61
2022/02/14 10:17:53;;;;;;;;;3.33;3.00;;;;;-147.17;87.53;50824.38;4994544;28;51483;-62
2022/02/14 10:20:23;;;;;;;;;3.00;3.00;;;;;-147.17;87.50;50765.31;4993584;28;51146;-62
2022/02/14 10:23:09;;;;;;;;;2.00;2.00;;;;;-147.17;87.64;50851.94;4994743;28;51084;-62
2022/02/14 10:25:38;;;;;;;;;3.00;3.00;;;;;-147.17;83.32;50977.94;4994460;28;50916;-63
2022/02/14 10:28:21;;;;;;;;;1.00;1.00;;;;;-147.17;81.15;50934.63;4995238;28;52364;-62
2022/02/14 10:31:07;;;;;;;;;1.33;1.00;;;;;-147.17;79.73;50952.34;4981290;28;51358;-62
2022/02/14 10:33:58;;;;;;;;;8.00;8.00;;;;;-147.17;81.42;50911.00;4994132;28;51084;-61
2022/02/14 10:36:29;;;;;;;;;4.33;3.33;;;;;-147.17;80.72;50952.34;4994428;28;51304;-61
2022/02/14 10:38:56;;;;;;;;;2.00;2.00;;;;;-147.17;80.63;50942.50;4987370;28;51157;-61
2022/02/14 10:41:22;;;;;;;;;4.00;3.00;;;;;-147.17;81.16;50930.69;4975323;28;51274;-61
2022/02/14 10:43:48;;;;;;;;;3.00;3.00;;;;;-147.17;82.05;50891.31;4988887;28;51084;-61
2022/02/14 10:46:22;;;;;;;;;2.00;2.00;;;;;-147.17;81.85;50916.91;4993100;28;51135;-61
2022/02/14 10:48:54;;;;;;;;;4.00;3.00;;;;;-147.17;81.93;50903.13;4993678;28;52039;-62
2022/02/14 10:51:20;;;;;;;;;12.75;11.25;;;;;-147.17;82.48;50867.69;4993968;28;51102;-62
2022/02/14 10:53:51;;;;;;;;;4.00;2.00;;;;;-147.17;83.49;50851.94;4994352;28;51113;-62
2022/02/14 10:56:18;;;;;;;;;2.67;2.00;;;;;-147.17;85.48;50806.66;4994125;28;51283;-62
2022/02/14 10:58:45;;;;;;;;;3.00;2.00;;;;;-147.17;80.35;51080.31;4993956;28;52197;-62
2022/02/14 11:01:12;;;;;;;;;2.00;2.00;;;;;-147.17;78.96;51017.31;4993687;28;51050;-64
2022/02/14 11:03:46;;;;;;;;;3.67;3.00;;;;;-147.17;75.82;51170.91;4993584;28;51201;-61
2022/02/14 11:06:12;;;;;;;;;4.00;4.00;;;;;-147.17;74.50;51198.47;4994212;28;51162;-62
2022/02/14 11:08:39;;;;;;;;;127.00;120.25;;;;;-147.17;76.21;51044.88;4993372;28;51374;-61